Time;durP1;ratioP1;P1;durP2;ratioP2;P2;SDS_P1;SDS_P2;PMS_P1;PMS_P2;Temp;Humidity;BMP_temperature;BMP_pressure;BME280_temperature;BME280_humidity;BME280_pressure;Samples;Min_cycle;Max_cycle;Signal;HPM_P1;HPM_P2
2023/03/22 00:02:10;;;;;;;2.60;1.13;;;;;15.00;100740.00;;;;5087538;28;21032;-77
2023/03/22 00:04:37;;;;;;;2.08;1.00;;;;;15.00;100742.00;;;;5084424;28;20205;-77
2023/03/22 00:07:05;;;;;;;2.88;1.42;;;;;15.00;100727.00;;;;5087714;28;20293;-77
2023/03/22 00:09:32;;;;;;;1.83;1.10;;;;;15.00;100736.00;;;;5089098;28;20649;-77
2023/03/22 00:12:00;;;;;;;5.57;1.50;;;;;15.00;100730.00;;;;5087225;28;20197;-76
2023/03/22 00:14:27;;;;;;;5.65;1.70;;;;;15.00;100720.00;;;;5092257;28;20300;-77
2023/03/22 00:16:55;;;;;;;3.17;1.23;;;;;14.90;100715.00;;;;5090562;28;20284;-77
2023/03/22 00:19:25;;;;;;;3.13;1.17;;;;;14.90;100715.00;;;;5091919;28;20201;-77
2023/03/22 00:21:52;;;;;;;4.57;1.50;;;;;14.90;100709.00;;;;5090150;28;20729;-76
2023/03/22 00:24:20;;;;;;;2.00;1.05;;;;;14.90;100711.00;;;;5091289;28;20277;-76
2023/03/22 00:26:48;;;;;;;4.97;1.30;;;;;14.90;100711.00;;;;5090903;28;20705;-76
2023/03/22 00:29:15;;;;;;;2.30;1.15;;;;;14.90;100715.00;;;;5085456;28;20308;-76
2023/03/22 00:31:42;;;;;;;3.80;1.27;;;;;14.90;100714.00;;;;5090304;28;20285;-76
2023/03/22 00:34:10;;;;;;;2.90;1.38;;;;;14.90;100709.00;;;;5083135;28;20779;-76
2023/03/22 00:36:39;;;;;;;3.42;1.50;;;;;14.80;100703.00;;;;5091886;28;20221;-76
2023/03/22 00:39:06;;;;;;;2.35;1.23;;;;;14.80;100706.00;;;;5090577;28;20289;-77
2023/03/22 00:41:34;;;;;;;3.65;1.25;;;;;14.80;100695.00;;;;5090895;28;20277;-76
2023/03/22 00:44:01;;;;;;;3.08;1.20;;;;;14.80;100699.00;;;;5091335;28;20285;-76
2023/03/22 00:46:28;;;;;;;2.45;1.40;;;;;14.80;100698.00;;;;5092295;28;20217;-76
2023/03/22 00:48:56;;;;;;;4.80;1.00;;;;;14.80;100694.00;;;;5089397;28;20205;-76
2023/03/22 00:51:23;;;;;;;2.72;1.40;;;;;14.70;100687.00;;;;5074630;28;20575;-76
2023/03/22 00:53:53;;;;;;;1.98;1.00;;;;;14.70;100682.00;;;;5091739;28;20213;-76
2023/03/22 00:56:21;;;;;;;2.67;1.00;;;;;14.70;100677.00;;;;5091255;28;20874;-76
2023/03/22 00:58:49;;;;;;;2.88;1.13;;;;;14.70;100672.00;;;;5090098;28;20700;-76
2023/03/22 01:01:16;;;;;;;4.10;1.23;;;;;14.70;100670.00;;;;5090184;28;20688;-76
2023/03/22 01:03:44;;;;;;;3.63;1.25;;;;;14.70;100664.00;;;;5087717;28;20584;-76
2023/03/22 01:06:11;;;;;;;5.50;0.93;;;;;14.70;100656.00;;;;5072275;28;20221;-76
2023/03/22 01:08:39;;;;;;;2.80;1.45;;;;;14.70;100664.00;;;;5072134;28;20195;-76
2023/03/22 01:11:08;;;;;;;2.38;0.90;;;;;14.60;100651.00;;;;5077098;28;20206;-76
2023/03/22 01:13:37;;;;;;;2.92;1.23;;;;;14.60;100644.00;;;;5091267;28;20198;-76
2023/03/22 01:16:05;;;;;;;4.22;1.33;;;;;14.60;100637.00;;;;5091115;28;20222;-76
2023/03/22 01:18:32;;;;;;;3.67;1.15;;;;;14.60;100631.00;;;;5090548;28;20202;-76
2023/03/22 01:21:00;;;;;;;3.05;1.02;;;;;14.60;100630.00;;;;5089769;28;20202;-76
2023/03/22 01:23:28;;;;;;;4.13;1.00;;;;;14.60;100628.00;;;;5084248;28;20645;-76
2023/03/22 01:25:55;;;;;;;2.65;0.88;;;;;14.60;100629.00;;;;5076125;28;20194;-76
2023/03/22 01:28:24;;;;;;;1.75;0.95;;;;;14.60;100622.00;;;;5089765;28;20218;-77
2023/03/22 01:30:51;;;;;;;2.38;1.17;;;;;14.60;100620.00;;;;5089980;28;20241;-76
2023/03/22 01:33:18;;;;;;;1.90;0.80;;;;;14.60;100612.00;;;;5088720;28;20214;-76
2023/03/22 01:35:46;;;;;;;3.05;1.10;;;;;14.60;100610.00;;;;5090062;28;20225;-77
2023/03/22 01:38:13;;;;;;;4.25;1.20;;;;;14.60;100605.00;;;;5089416;28;20567;-76
2023/03/22 01:40:40;;;;;;;5.30;1.60;;;;;14.60;100603.00;;;;5082154;28;20210;-76
2023/03/22 01:43:13;;;;;;;4.40;1.20;;;;;14.50;100596.00;;;;5086917;28;20209;-76
2023/03/22 01:45:44;;;;;;;3.30;1.42;;;;;14.60;100588.00;;;;5090744;28;20208;-76
2023/03/22 01:48:37;;;;;;;4.05;1.40;;;;;14.50;100579.00;;;;5089177;28;20743;-77
2023/03/22 01:51:09;;;;;;;3.80;1.40;;;;;14.60;100572.00;;;;5069670;28;20198;-76
2023/03/22 01:53:40;;;;;;;3.58;1.38;;;;;14.60;100571.00;;;;5075275;28;20614;-76
2023/03/22 01:56:09;;;;;;;4.07;1.40;;;;;14.70;100557.00;;;;5089150;28;20232;-77
2023/03/22 01:58:38;;;;;;;4.28;1.65;;;;;14.70;100555.00;;;;5075309;28;20570;-77
2023/03/22 02:01:09;;;;;;;3.72;1.30;;;;;14.70;100552.00;;;;5089602;28;20209;-76
2023/03/22 02:03:42;;;;;;;3.30;1.55;;;;;14.70;100547.00;;;;5086303;28;20575;-76
2023/03/22 02:06:09;;;;;;;2.95;1.40;;;;;14.80;100546.00;;;;5089786;28;20205;-76
2023/03/22 02:08:39;;;;;;;2.85;1.30;;;;;14.80;100538.00;;;;5081401;28;20193;-76
2023/03/22 02:11:07;;;;;;;3.42;1.20;;;;;14.80;100540.00;;;;5080909;28;20194;-78
2023/03/22 02:13:51;;;;;;;2.50;1.25;;;;;14.80;100535.00;;;;5089950;28;20201;-76
2023/03/22 02:16:30;;;;;;;4.45;1.58;;;;;14.80;100532.00;;;;5069519;28;20222;-76
2023/03/22 02:19:15;;;;;;;3.70;1.63;;;;;14.80;100521.00;;;;5069694;28;20199;-76
2023/03/22 02:22:20;;;;;;;2.90;1.42;;;;;14.80;100531.00;;;;5085236;28;20198;-76
2023/03/22 02:25:20;;;;;;;4.05;1.17;;;;;14.80;100523.00;;;;5089626;28;20212;-76
2023/03/22 02:28:08;;;;;;;4.32;1.50;;;;;14.90;100529.00;;;;5060898;28;20202;-76
2023/03/22 02:31:01;;;;;;;2.13;1.00;;;;;14.90;100522.00;;;;5087693;28;20201;-76
2023/03/22 02:33:58;;;;;;;3.90;1.63;;;;;14.90;100513.00;;;;5087772;28;20229;-77
2023/03/22 02:36:43;;;;;;;2.35;1.65;;;;;14.90;100506.00;;;;5081095;28;20221;-76
2023/03/22 02:39:21;;;;;;;2.75;1.52;;;;;15.00;100500.00;;;;5085133;28;20193;-76
2023/03/22 02:42:01;;;;;;;3.25;1.75;;;;;15.00;100502.00;;;;5087505;28;20194;-76
2023/03/22 02:44:39;;;;;;;6.35;1.88;;;;;15.00;100503.00;;;;5089042;28;20213;-77
2023/03/22 02:47:15;;;;;;;4.03;2.72;;;;;15.00;100498.00;;;;5089075;28;20198;-76
2023/03/22 02:49:50;;;;;;;4.85;2.53;;;;;15.00;100490.00;;;;5071703;28;20381;-76
2023/03/22 02:52:27;;;;;;;5.28;2.50;;;;;15.00;100488.00;;;;5079605;28;20190;-76
2023/03/22 02:55:02;;;;;;;5.38;2.92;;;;;15.00;100479.00;;;;5087825;28;20198;-77
2023/03/22 02:57:35;;;;;;;7.03;2.78;;;;;15.00;100480.00;;;;5086647;28;20221;-76
2023/03/22 03:00:09;;;;;;;6.32;3.25;;;;;15.10;100476.00;;;;5087645;28;20614;-76
2023/03/22 03:02:39;;;;;;;6.70;3.47;;;;;15.10;100474.00;;;;5086098;28;20266;-77
2023/03/22 03:05:10;;;;;;;6.38;4.30;;;;;15.10;100465.00;;;;5085157;28;20229;-77
2023/03/22 03:07:39;;;;;;;7.03;4.55;;;;;15.10;100468.00;;;;5075132;28;20191;-76
2023/03/22 03:10:12;;;;;;;8.93;4.45;;;;;15.10;100465.00;;;;5078269;28;20221;-76
2023/03/22 03:12:39;;;;;;;8.70;4.10;;;;;15.10;100471.00;;;;5081646;28;20201;-77
2023/03/22 03:15:14;;;;;;;9.40;4.45;;;;;15.10;100472.00;;;;5087027;28;21037;-77
2023/03/22 03:17:55;;;;;;;6.78;4.57;;;;;15.10;100470.00;;;;5088689;28;20217;-77
2023/03/22 03:20:29;;;;;;;7.47;4.50;;;;;15.10;100473.00;;;;5088621;28;20194;-77
2023/03/22 03:23:08;;;;;;;6.80;5.07;;;;;15.10;100478.00;;;;5082122;28;20198;-76
2023/03/22 03:25:45;;;;;;;7.30;4.53;;;;;15.20;100476.00;;;;5086560;28;20202;-76
2023/03/22 03:28:21;;;;;;;6.45;4.45;;;;;15.20;100472.00;;;;5070153;28;20205;-77
2023/03/22 03:30:56;;;;;;;7.10;3.88;;;;;15.20;100481.00;;;;5088326;28;20196;-76
2023/03/22 03:33:25;;;;;;;5.82;4.00;;;;;15.20;100474.00;;;;5087067;28;20271;-76
2023/03/22 03:35:59;;;;;;;6.47;4.45;;;;;15.20;100477.00;;;;5085126;28;20707;-77
2023/03/22 03:38:31;;;;;;;5.43;3.97;;;;;15.20;100476.00;;;;5079954;28;20198;-77
2023/03/22 03:41:03;;;;;;;7.53;4.63;;;;;15.30;100473.00;;;;5081923;28;20225;-77
2023/03/22 03:43:32;;;;;;;5.53;4.78;;;;;15.30;100476.00;;;;5084160;28;20592;-76
2023/03/22 03:46:00;;;;;;;6.90;4.97;;;;;15.30;100471.00;;;;5085557;28;20951;-76
2023/03/22 03:48:30;;;;;;;7.22;5.10;;;;;15.30;100466.00;;;;5088274;28;20191;-76
2023/03/22 03:51:00;;;;;;;6.15;4.55;;;;;15.30;100467.00;;;;5086891;28;20197;-77
2023/03/22 03:53:28;;;;;;;6.55;5.07;;;;;15.30;100466.00;;;;5085925;28;20217;-77
2023/03/22 03:55:55;;;;;;;6.30;4.43;;;;;15.30;100472.00;;;;5086343;28;20198;-77
2023/03/22 03:58:24;;;;;;;8.27;4.30;;;;;15.30;100469.00;;;;5087539;28;20202;-77
2023/03/22 04:00:51;;;;;;;6.88;4.88;;;;;15.30;100469.00;;;;5087782;28;20205;-77
2023/03/22 04:03:18;;;;;;;6.63;4.45;;;;;15.30;100473.00;;;;5086768;28;20201;-77
2023/03/22 04:05:46;;;;;;;5.85;4.30;;;;;15.30;100470.00;;;;5088615;28;20186;-77
2023/03/22 04:08:13;;;;;;;7.55;5.22;;;;;15.30;100468.00;;;;5086035;28;20198;-77
2023/03/22 04:10:41;;;;;;;6.43;4.53;;;;;15.30;100470.00;;;;5087506;28;20746;-77
2023/03/22 04:13:09;;;;;;;7.97;4.35;;;;;15.30;100469.00;;;;5081888;28;20219;-77
2023/03/22 04:15:37;;;;;;;5.90;4.35;;;;;15.30;100472.00;;;;5088058;28;20695;-77
2023/03/22 04:18:05;;;;;;;8.05;4.22;;;;;15.40;100473.00;;;;5085626;28;20691;-77
2023/03/22 04:20:33;;;;;;;8.70;4.68;;;;;15.40;100469.00;;;;5087361;28;20242;-77
2023/03/22 04:23:00;;;;;;;5.60;4.25;;;;;15.40;100465.00;;;;5087101;28;20202;-77
2023/03/22 04:25:28;;;;;;;6.97;4.47;;;;;15.40;100462.00;;;;5088079;28;20198;-77
2023/03/22 04:27:56;;;;;;;6.30;4.25;;;;;15.40;100463.00;;;;5086680;28;20608;-76
2023/03/22 04:30:23;;;;;;;6.72;4.38;;;;;15.40;100454.00;;;;5067793;28;20211;-76
2023/03/22 04:32:52;;;;;;;6.82;4.70;;;;;15.50;100448.00;;;;5068043;28;20219;-78
2023/03/22 04:35:19;;;;;;;7.45;4.45;;;;;15.50;100432.00;;;;5067846;28;20199;-76
2023/03/22 04:37:47;;;;;;;7.88;4.43;;;;;15.50;100434.00;;;;5066555;28;20224;-76
2023/03/22 04:40:15;;;;;;;7.13;4.68;;;;;15.50;100438.00;;;;5061599;28;20222;-76
2023/03/22 04:42:43;;;;;;;7.18;4.45;;;;;15.50;100433.00;;;;5061829;28;20202;-76
2023/03/22 04:45:11;;;;;;;6.20;3.88;;;;;15.50;100434.00;;;;5067542;28;20210;-76
2023/03/22 04:47:39;;;;;;;5.28;3.47;;;;;15.50;100438.00;;;;5060116;28;20204;-76
2023/03/22 04:50:09;;;;;;;6.78;3.95;;;;;15.50;100437.00;;;;5063830;28;20195;-76
2023/03/22 04:52:36;;;;;;;12.48;4.10;;;;;15.60;100430.00;;;;5064441;28;20195;-76
2023/03/22 04:55:04;;;;;;;5.15;3.92;;;;;15.60;100426.00;;;;5066651;28;20204;-76
2023/03/22 04:57:31;;;;;;;7.43;3.97;;;;;15.60;100431.00;;;;5065269;28;20224;-76
2023/03/22 04:59:58;;;;;;;5.57;3.38;;;;;15.60;100430.00;;;;5064057;28;20206;-76
2023/03/22 05:02:25;;;;;;;5.57;3.92;;;;;15.60;100429.00;;;;5067704;28;20214;-76
2023/03/22 05:04:53;;;;;;;6.78;3.72;;;;;15.60;100422.00;;;;5066869;28;20203;-76
2023/03/22 05:07:21;;;;;;;4.78;3.47;;;;;15.60;100424.00;;;;5071506;28;20191;-76
2023/03/22 05:09:49;;;;;;;6.28;3.67;;;;;15.60;100416.00;;;;5069085;28;20202;-76
2023/03/22 05:12:16;;;;;;;4.45;3.20;;;;;15.60;100414.00;;;;5071093;28;20191;-76
2023/03/22 05:14:43;;;;;;;7.63;3.90;;;;;15.60;100422.00;;;;5059031;28;20646;-77
2023/03/22 05:17:11;;;;;;;5.45;2.97;;;;;15.60;100422.00;;;;5069357;28;20219;-76
2023/03/22 05:19:39;;;;;;;5.25;3.47;;;;;15.60;100410.00;;;;5068163;28;20195;-77
2023/03/22 05:22:07;;;;;;;4.43;3.33;;;;;15.60;100409.00;;;;5068532;28;20214;-76
2023/03/22 05:24:35;;;;;;;7.97;3.83;;;;;15.50;100415.00;;;;5071325;28;20281;-76
2023/03/22 05:27:03;;;;;;;6.35;3.35;;;;;15.50;100416.00;;;;5069314;28;20190;-76
2023/03/22 05:29:35;;;;;;;5.35;3.60;;;;;15.50;100416.00;;;;5070230;28;20225;-76
2023/03/22 05:32:03;;;;;;;9.07;3.35;;;;;15.50;100409.00;;;;5089499;28;20199;-77
2023/03/22 05:34:34;;;;;;;5.32;3.45;;;;;15.50;100412.00;;;;5090315;28;20202;-77
2023/03/22 05:37:01;;;;;;;5.63;3.08;;;;;15.50;100406.00;;;;5090945;28;20317;-76
2023/03/22 05:39:29;;;;;;;5.35;3.20;;;;;15.50;100400.00;;;;5080127;28;20578;-76
2023/03/22 05:41:57;;;;;;;5.45;2.85;;;;;15.40;100403.00;;;;5088976;28;20206;-76
2023/03/22 05:44:25;;;;;;;5.38;3.45;;;;;15.50;100408.00;;;;5090352;28;20209;-76
2023/03/22 05:46:52;;;;;;;7.18;3.50;;;;;15.40;100413.00;;;;5090214;28;20199;-76
2023/03/22 05:49:19;;;;;;;4.90;3.17;;;;;15.40;100411.00;;;;5090594;28;20190;-76
2023/03/22 05:51:46;;;;;;;4.07;3.08;;;;;15.40;100403.00;;;;5090417;28;20204;-76
2023/03/22 05:54:14;;;;;;;7.47;3.28;;;;;15.40;100401.00;;;;5090331;28;20213;-76
2023/03/22 05:56:42;;;;;;;5.55;2.25;;;;;15.40;100393.00;;;;5087684;28;20868;-76
2023/03/22 05:59:11;;;;;;;4.63;2.70;;;;;15.40;100382.00;;;;5087542;28;20202;-76
2023/03/22 06:01:38;;;;;;;4.47;3.30;;;;;15.40;100392.00;;;;5090324;28;20672;-76
2023/03/22 06:04:06;;;;;;;6.82;2.90;;;;;15.40;100393.00;;;;5088734;28;20221;-76
2023/03/22 06:06:33;;;;;;;7.35;3.40;;;;;15.40;100398.00;;;;5090408;28;20206;-76
2023/03/22 06:09:00;;;;;;;3.78;2.75;;;;;15.40;100395.00;;;;5086386;28;20195;-76
2023/03/22 06:11:29;;;;;;;4.82;2.45;;;;;15.40;100396.00;;;;5071935;28;20203;-76
2023/03/22 06:13:56;;;;;;;4.45;2.58;;;;;15.40;100399.00;;;;5071041;28;20226;-77
2023/03/22 06:16:25;;;;;;;5.43;2.92;;;;;15.40;100404.00;;;;5083500;28;20205;-76
2023/03/22 06:18:52;;;;;;;4.88;2.55;;;;;15.40;100401.00;;;;5087685;28;20195;-77
2023/03/22 06:21:19;;;;;;;4.90;2.50;;;;;15.40;100408.00;;;;5086687;28;20280;-76
2023/03/22 06:23:47;;;;;;;5.68;2.78;;;;;15.40;100395.00;;;;5085357;28;20255;-76
2023/03/22 06:26:14;;;;;;;5.55;2.55;;;;;15.50;100398.00;;;;5087440;28;20198;-76
2023/03/22 06:28:41;;;;;;;10.73;3.05;;;;;15.50;100395.00;;;;5085120;28;20218;-76
2023/03/22 06:31:10;;;;;;;4.85;2.28;;;;;15.50;100393.00;;;;5070498;28;20202;-77
2023/03/22 06:33:38;;;;;;;3.75;2.53;;;;;15.50;100391.00;;;;5071680;28;20251;-77
2023/03/22 06:36:07;;;;;;;6.55;2.20;;;;;15.60;100395.00;;;;5069147;28;20206;-76
2023/03/22 06:38:34;;;;;;;4.28;2.33;;;;;15.60;100396.00;;;;5085353;28;20226;-76
2023/03/22 06:41:01;;;;;;;4.18;2.22;;;;;15.70;100402.00;;;;5078704;28;20191;-77
2023/03/22 06:43:29;;;;;;;4.07;2.25;;;;;15.70;100395.00;;;;5082932;28;20198;-76
2023/03/22 06:45:56;;;;;;;4.80;1.90;;;;;15.80;100403.00;;;;5069961;28;20207;-76
2023/03/22 06:48:24;;;;;;;4.70;1.90;;;;;15.80;100395.00;;;;5085672;28;20279;-78
2023/03/22 06:50:52;;;;;;;3.65;1.98;;;;;15.90;100397.00;;;;5088067;28;20213;-77
2023/03/22 06:53:20;;;;;;;3.58;2.28;;;;;16.00;100405.00;;;;5087685;28;20191;-78
2023/03/22 06:55:47;;;;;;;4.65;1.80;;;;;16.00;100399.00;;;;5088599;28;20202;-78
2023/03/22 06:58:14;;;;;;;5.90;2.03;;;;;16.10;100398.00;;;;5085257;28;20219;-78
2023/03/22 07:00:42;;;;;;;6.53;2.45;;;;;16.20;100397.00;;;;5085213;28;20198;-76
2023/03/22 07:03:09;;;;;;;4.95;1.83;;;;;16.20;100405.00;;;;5082528;28;20213;-76
2023/03/22 07:05:36;;;;;;;5.43;2.15;;;;;16.30;100404.00;;;;5082446;28;20194;-75
2023/03/22 07:08:05;;;;;;;3.42;1.55;;;;;16.30;100407.00;;;;5081015;28;20191;-75
2023/03/22 07:10:32;;;;;;;3.20;1.45;;;;;16.30;100402.00;;;;5073844;28;20213;-74
2023/03/22 07:13:01;;;;;;;4.82;1.50;;;;;16.30;100393.00;;;;5086762;28;20205;-74
2023/03/22 07:15:29;;;;;;;2.85;1.40;;;;;16.40;100400.00;;;;5088926;28;20198;-75
2023/03/22 07:17:56;;;;;;;5.78;1.95;;;;;16.40;100403.00;;;;5088353;28;20635;-74
2023/03/22 07:20:24;;;;;;;6.13;1.75;;;;;16.40;100402.00;;;;5082830;28;20206;-74
2023/03/22 07:22:51;;;;;;;4.32;1.70;;;;;16.40;100401.00;;;;5076342;28;20198;-75
2023/03/22 07:25:20;;;;;;;4.20;1.60;;;;;16.50;100407.00;;;;5079246;28;20576;-75
2023/03/22 07:27:47;;;;;;;6.35;1.48;;;;;16.50;100395.00;;;;5074185;28;20198;-76
2023/03/22 07:30:14;;;;;;;3.72;1.65;;;;;16.60;100409.00;;;;5088633;28;20719;-76
2023/03/22 07:32:42;;;;;;;3.60;1.30;;;;;16.60;100402.00;;;;5086507;28;20218;-77
2023/03/22 07:35:09;;;;;;;6.22;1.58;;;;;16.60;100398.00;;;;5089137;28;20206;-76
2023/03/22 07:37:37;;;;;;;6.45;1.55;;;;;16.60;100400.00;;;;5080476;28;20218;-76
2023/03/22 07:40:05;;;;;;;9.93;1.90;;;;;16.60;100398.00;;;;5079294;28;20194;-77
2023/03/22 07:42:34;;;;;;;3.08;1.20;;;;;16.70;100403.00;;;;5088805;28;20205;-76
2023/03/22 07:45:01;;;;;;;4.78;1.08;;;;;16.70;100392.00;;;;5087965;28;20736;-76
2023/03/22 07:47:29;;;;;;;6.45;1.25;;;;;16.70;100389.00;;;;5088912;28;20201;-77
2023/03/22 07:49:56;;;;;;;2.42;1.00;;;;;16.70;100392.00;;;;5088056;28;20205;-76
2023/03/22 07:52:23;;;;;;;4.43;1.67;;;;;16.80;100396.00;;;;5086691;28;20194;-77
2023/03/22 07:54:50;;;;;;;3.08;1.00;;;;;16.80;100396.00;;;;5076920;28;20253;-78
2023/03/22 07:57:18;;;;;;;1.83;1.20;;;;;16.80;100405.00;;;;5068084;28;20307;-77
2023/03/22 07:59:46;;;;;;;7.38;1.80;;;;;16.80;100395.00;;;;5069319;28;20210;-78
2023/03/22 08:02:14;;;;;;;4.15;1.65;;;;;16.90;100411.00;;;;5081732;28;20198;-75
2023/03/22 08:04:42;;;;;;;5.93;1.73;;;;;16.90;100398.00;;;;5082879;28;20309;-76
2023/03/22 08:07:10;;;;;;;4.72;1.30;;;;;17.00;100401.00;;;;5087088;28;20206;-76
2023/03/22 08:09:38;;;;;;;4.43;1.98;;;;;17.00;100403.00;;;;5088413;28;20686;-76
2023/03/22 08:12:06;;;;;;;4.85;1.23;;;;;17.10;100405.00;;;;5085768;28;20202;-76
2023/03/22 08:14:33;;;;;;;3.40;1.15;;;;;17.20;100402.00;;;;5086139;28;20592;-76
2023/03/22 08:17:02;;;;;;;7.55;1.52;;;;;17.30;100400.00;;;;5083416;28;20205;-76
2023/03/22 08:19:30;;;;;;;2.85;1.17;;;;;17.40;100407.00;;;;5084406;28;20207;-76
2023/03/22 08:21:58;;;;;;;4.20;1.60;;;;;17.40;100406.00;;;;5075885;28;20762;-77
2023/03/22 08:24:26;;;;;;;5.18;1.75;;;;;17.50;100402.00;;;;5085696;28;20194;-76
2023/03/22 08:26:53;;;;;;;8.18;2.33;;;;;17.50;100404.00;;;;5083455;28;20202;-77
2023/03/22 08:29:22;;;;;;;3.03;1.52;;;;;17.50;100405.00;;;;5082292;28;20320;-76
2023/03/22 08:31:50;;;;;;;5.00;1.63;;;;;17.60;100389.00;;;;5087879;28;20191;-76
2023/03/22 08:34:18;;;;;;;4.05;1.48;;;;;17.60;100403.00;;;;5085828;28;20799;-76
2023/03/22 08:36:46;;;;;;;4.65;1.50;;;;;17.60;100397.00;;;;5092477;28;20201;-76
2023/03/22 08:39:13;;;;;;;5.75;2.08;;;;;17.60;100395.00;;;;5091589;28;20283;-75
2023/03/22 08:41:41;;;;;;;5.65;1.90;;;;;17.70;100406.00;;;;5091242;28;20653;-76
2023/03/22 08:44:08;;;;;;;4.57;1.48;;;;;17.70;100397.00;;;;5087909;28;20229;-76
2023/03/22 08:46:35;;;;;;;3.85;1.23;;;;;17.80;100396.00;;;;5085363;28;20209;-76
2023/03/22 08:49:03;;;;;;;4.70;1.65;;;;;17.80;100396.00;;;;5086871;28;20194;-76
2023/03/22 08:51:31;;;;;;;2.70;1.27;;;;;17.90;100396.00;;;;5088865;28;20190;-76
2023/03/22 08:53:59;;;;;;;3.28;1.60;;;;;17.90;100406.00;;;;5083455;28;20205;-76
2023/03/22 08:56:27;;;;;;;5.50;1.88;;;;;18.00;100396.00;;;;5085642;28;20676;-76
2023/03/22 08:58:54;;;;;;;5.82;1.98;;;;;18.00;100395.00;;;;5089325;28;20226;-75
2023/03/22 09:01:22;;;;;;;3.25;1.33;;;;;18.00;100390.00;;;;5091486;28;20194;-77
2023/03/22 09:03:49;;;;;;;4.85;1.77;;;;;18.00;100394.00;;;;5072749;28;20202;-77
2023/03/22 09:06:17;;;;;;;3.38;1.25;;;;;18.00;100394.00;;;;5088208;28;20202;-77
2023/03/22 09:08:45;;;;;;;3.63;1.50;;;;;18.00;100390.00;;;;5091613;28;20194;-77
2023/03/22 09:11:13;;;;;;;3.28;1.27;;;;;18.00;100401.00;;;;5088871;28;20870;-77
2023/03/22 09:13:40;;;;;;;5.55;1.42;;;;;18.00;100389.00;;;;5087932;28;20195;-77
2023/03/22 09:16:09;;;;;;;5.35;1.23;;;;;17.90;100398.00;;;;5086942;28;20198;-77
2023/03/22 09:18:37;;;;;;;1.67;1.10;;;;;17.90;100402.00;;;;5086790;28;20224;-77
2023/03/22 09:21:06;;;;;;;5.55;1.42;;;;;17.90;100399.00;;;;5070800;28;20202;-78
2023/03/22 09:23:34;;;;;;;6.63;1.52;;;;;17.90;100389.00;;;;5078052;28;20248;-77
2023/03/22 09:26:04;;;;;;;4.72;1.42;;;;;17.80;100401.00;;;;5088147;28;20290;-76
2023/03/22 09:28:32;;;;;;;7.43;1.55;;;;;17.80;100391.00;;;;5086182;28;20602;-76
2023/03/22 09:31:01;;;;;;;2.33;1.02;;;;;17.80;100393.00;;;;5084684;28;20214;-77
2023/03/22 09:33:28;;;;;;;2.15;1.00;;;;;17.80;100402.00;;;;5079486;28;20215;-77
2023/03/22 09:35:56;;;;;;;2.88;1.10;;;;;17.80;100396.00;;;;5082638;28;20202;-77
2023/03/22 09:38:24;;;;;;;4.10;0.98;;;;;17.70;100406.00;;;;5088599;28;20287;-76
2023/03/22 09:40:59;;;;;;;3.13;1.05;;;;;17.70;100405.00;;;;5085836;28;20198;-77
2023/03/22 09:43:30;;;;;;;4.90;1.73;;;;;17.70;100402.00;;;;5076657;28;20591;-77
2023/03/22 09:45:58;;;;;;;3.42;1.10;;;;;17.60;100396.00;;;;5086294;28;20206;-76
2023/03/22 09:48:31;;;;;;;3.00;1.30;;;;;17.60;100405.00;;;;5084249;28;20209;-77
2023/03/22 09:51:02;;;;;;;4.50;1.15;;;;;17.50;100399.00;;;;5086590;28;20599;-77
2023/03/22 09:53:31;;;;;;;3.08;1.30;;;;;17.50;100408.00;;;;5087066;28;20194;-78
2023/03/22 09:56:06;;;;;;;6.93;1.90;;;;;17.50;100390.00;;;;5083094;28;20194;-77
2023/03/22 09:58:41;;;;;;;3.08;1.77;;;;;17.40;100400.00;;;;5084331;28;20222;-78
2023/03/22 10:01:16;;;;;;;2.42;1.60;;;;;17.40;100391.00;;;;5088583;28;20224;-77
2023/03/22 10:04:05;;;;;;;3.90;0.93;;;;;17.30;100400.00;;;;5085857;28;20201;-77
2023/03/22 10:06:33;;;;;;;4.38;1.10;;;;;17.40;100393.00;;;;5088109;28;20206;-77
2023/03/22 10:09:07;;;;;;;3.85;1.13;;;;;17.40;100393.00;;;;5089553;28;20213;-78
2023/03/22 10:11:44;;;;;;;3.90;1.63;;;;;17.30;100389.00;;;;5089849;28;20274;-77
2023/03/22 10:14:24;;;;;;;3.83;1.50;;;;;17.30;100386.00;;;;5090141;28;20576;-78
2023/03/22 10:16:54;;;;;;;4.75;1.63;;;;;17.40;100384.00;;;;5088808;28;20194;-78
2023/03/22 10:19:27;;;;;;;4.68;1.45;;;;;17.30;100384.00;;;;5086788;28;20277;-77
2023/03/22 10:21:56;;;;;;;4.68;1.20;;;;;17.30;100392.00;;;;5089660;28;20653;-77
2023/03/22 10:24:27;;;;;;;7.40;1.35;;;;;17.30;100382.00;;;;5089897;28;20194;-77
2023/03/22 10:26:54;;;;;;;3.17;1.50;;;;;17.30;100380.00;;;;5086488;28;20194;-77
2023/03/22 10:29:28;;;;;;;4.95;1.00;;;;;17.30;100386.00;;;;5085912;28;20699;-77
2023/03/22 10:31:56;;;;;;;2.97;1.15;;;;;17.30;100400.00;;;;5088462;28;20197;-78
2023/03/22 10:34:26;;;;;;;3.80;1.13;;;;;17.20;100384.00;;;;5085280;28;20222;-77
2023/03/22 10:36:57;;;;;;;3.83;1.25;;;;;17.20;100380.00;;;;5068598;28;20209;-77
2023/03/22 10:39:29;;;;;;;4.85;1.13;;;;;17.20;100394.00;;;;5085485;28;20240;-77
2023/03/22 10:41:59;;;;;;;3.33;1.25;;;;;17.20;100382.00;;;;5088573;28;20202;-77
2023/03/22 10:44:33;;;;;;;3.67;1.20;;;;;17.20;100396.00;;;;5083872;28;20196;-76
2023/03/22 10:47:06;;;;;;;3.58;1.27;;;;;17.20;100396.00;;;;5081675;28;20201;-77
2023/03/22 10:49:36;;;;;;;2.65;1.13;;;;;17.20;100396.00;;;;5084905;28;20293;-76
2023/03/22 10:52:28;;;;;;;2.15;0.93;;;;;17.10;100383.00;;;;5071169;28;20194;-77
2023/03/22 10:54:56;;;;;;;3.33;0.90;;;;;17.20;100382.00;;;;5074166;28;20917;-77
2023/03/22 10:57:24;;;;;;;6.38;1.42;;;;;17.20;100372.00;;;;5081675;28;20201;-78
2023/03/22 10:59:56;;;;;;;3.30;1.10;;;;;17.20;100383.00;;;;5085835;28;20225;-77
2023/03/22 11:02:26;;;;;;;3.47;0.93;;;;;17.20;100389.00;;;;5078905;28;20186;-77
2023/03/22 11:04:55;;;;;;;5.20;1.23;;;;;17.30;100375.00;;;;5084491;28;20206;-76
2023/03/22 11:07:33;;;;;;;2.53;1.05;;;;;17.20;100375.00;;;;5087419;28;20200;-77
2023/03/22 11:10:12;;;;;;;4.35;1.20;;;;;17.30;100381.00;;;;5085236;28;20217;-77
2023/03/22 11:12:43;;;;;;;3.70;0.90;;;;;17.30;100380.00;;;;5086017;28;20194;-76
2023/03/22 11:15:26;;;;;;;2.22;0.90;;;;;17.30;100376.00;;;;5086617;28;20197;-75
2023/03/22 11:17:58;;;;;;;2.22;0.85;;;;;17.40;100368.00;;;;5085963;28;20754;-76
2023/03/22 11:20:25;;;;;;;2.03;0.93;;;;;17.40;100374.00;;;;5068408;28;20198;-76
2023/03/22 11:22:55;;;;;;;2.10;1.00;;;;;17.40;100379.00;;;;5079357;28;20194;-76
2023/03/22 11:25:27;;;;;;;2.90;1.42;;;;;17.40;100383.00;;;;5086704;28;20986;-77
2023/03/22 11:27:56;;;;;;;3.15;1.15;;;;;17.50;100372.00;;;;5086805;28;20626;-76
2023/03/22 11:30:26;;;;;;;3.38;1.05;;;;;17.40;100387.00;;;;5087246;28;20237;-77
2023/03/22 11:33:02;;;;;;;2.15;0.85;;;;;17.40;100379.00;;;;5087143;28;20217;-77
2023/03/22 11:35:31;;;;;;;2.10;1.10;;;;;17.50;100379.00;;;;5083632;28;20194;-76
2023/03/22 11:38:01;;;;;;;2.78;0.98;;;;;17.50;100368.00;;;;5086199;28;20198;-77
2023/03/22 11:40:30;;;;;;;1.52;0.90;;;;;17.50;100374.00;;;;5086974;28;20218;-76
2023/03/22 11:43:10;;;;;;;2.75;1.13;;;;;17.50;100366.00;;;;5085344;28;20629;-77
2023/03/22 11:45:43;;;;;;;2.13;1.10;;;;;17.50;100382.00;;;;5086988;28;20225;-77
2023/03/22 11:48:17;;;;;;;3.38;1.73;;;;;17.50;100369.00;;;;5087956;28;20198;-77
2023/03/22 11:50:45;;;;;;;2.70;1.13;;;;;17.50;100385.00;;;;5088244;28;20656;-76
2023/03/22 11:53:16;;;;;;;3.17;1.17;;;;;17.50;100386.00;;;;5084893;28;20198;-77
2023/03/22 11:55:45;;;;;;;2.75;1.00;;;;;17.50;100396.00;;;;5086466;28;20206;-76
2023/03/22 11:58:27;;;;;;;5.20;1.20;;;;;17.40;100397.00;;;;5088569;28;20190;-77
2023/03/22 12:01:00;;;;;;;3.63;1.05;;;;;17.50;100395.00;;;;5085872;28;20230;-76
2023/03/22 12:03:30;;;;;;;3.55;1.15;;;;;17.50;100409.00;;;;5088593;28;20193;-76
2023/03/22 12:06:03;;;;;;;2.50;1.15;;;;;17.50;100405.00;;;;5086291;28;20230;-76
2023/03/22 12:08:39;;;;;;;3.08;1.02;;;;;17.50;100398.00;;;;5087695;28;20289;-75
2023/03/22 12:11:10;;;;;;;3.45;1.00;;;;;17.50;100399.00;;;;5084272;28;20198;-76
2023/03/22 12:13:46;;;;;;;4.13;1.00;;;;;17.40;100388.00;;;;5086160;28;20199;-76
2023/03/22 12:16:24;;;;;;;2.00;0.90;;;;;17.40;100399.00;;;;5086565;28;20197;-76
2023/03/22 12:19:00;;;;;;;2.00;1.00;;;;;17.50;100396.00;;;;5087546;28;20252;-77
2023/03/22 12:21:29;;;;;;;3.65;1.02;;;;;17.50;100393.00;;;;5087959;28;20198;-77
2023/03/22 12:24:02;;;;;;;2.22;1.10;;;;;17.40;100397.00;;;;5087963;28;20275;-76